Time;durP1;ratioP1;P1;durP2;ratioP2;P2;SDS_P1;SDS_P2;PMS_P1;PMS_P2;Temp;Humidity;BMP_temperature;BMP_pressure;BME280_temperature;BME280_humidity;BME280_pressure;Samples;Min_cycle;Max_cycle;Signal;HPM_P1;HPM_P2
2022/04/21 00:00:12;;;;;;;21.02;9.55;;;;;;;;;;4989841;28;20360;-66
2022/04/21 00:02:37;;;;;;;22.85;9.85;;;;;;;;;;4990830;28;20451;-66
2022/04/21 00:05:03;;;;;;;20.52;9.35;;;;;;;;;;4989778;28;20459;-66
2022/04/21 00:07:29;;;;;;;27.77;9.70;;;;;;;;;;4991323;28;20435;-66
2022/04/21 00:09:54;;;;;;;20.40;10.32;;;;;;;;;;4989954;28;20435;-66
2022/04/21 00:12:19;;;;;;;19.70;9.35;;;;;;;;;;4989980;28;20413;-66
2022/04/21 00:14:45;;;;;;;21.60;9.93;;;;;;;;;;4989656;28;20032;-66
2022/04/21 00:17:10;;;;;;;22.35;10.57;;;;;;;;;;4989566;28;20053;-65
2022/04/21 00:19:36;;;;;;;18.52;8.15;;;;;;;;;;4971958;28;20403;-65
2022/04/21 00:24:46;;;;;;;18.73;9.55;;;;;;;;;;4989650;28;20456;-66
2022/04/21 00:27:12;;;;;;;17.42;9.15;;;;;;;;;;4988690;28;20383;-66
2022/04/21 00:29:38;;;;;;;18.85;8.82;;;;;;;;;;4990914;28;20426;-66
2022/04/21 00:32:04;;;;;;;21.05;9.90;;;;;;;;;;4991411;28;20494;-66
2022/04/21 00:34:29;;;;;;;17.10;8.75;;;;;;;;;;4989593;28;20578;-67
2022/04/21 00:36:54;;;;;;;17.25;8.77;;;;;;;;;;4971694;28;20416;-66
2022/04/21 00:39:20;;;;;;;14.32;7.90;;;;;;;;;;4989123;28;20419;-66
2022/04/21 00:41:45;;;;;;;19.38;9.10;;;;;;;;;;4990520;28;20321;-65
2022/04/21 00:44:10;;;;;;;20.98;9.30;;;;;;;;;;4989797;28;20033;-66
2022/04/21 00:46:39;;;;;;;24.27;9.43;;;;;;;;;;4988941;28;20364;-66
2022/04/21 00:49:06;;;;;;;18.33;7.78;;;;;;;;;;4971261;28;20064;-66
2022/04/21 00:51:31;;;;;;;17.20;8.07;;;;;;;;;;4989004;28;20355;-66
2022/04/21 00:53:57;;;;;;;16.35;8.85;;;;;;;;;;4989701;28;20379;-66
2022/04/21 00:56:23;;;;;;;21.63;9.45;;;;;;;;;;4989424;28;20475;-65
2022/04/21 00:58:48;;;;;;;19.85;9.55;;;;;;;;;;4971139;28;20174;-66
2022/04/21 01:03:59;;;;;;;17.58;8.27;;;;;;;;;;4970318;28;20119;-66
2022/04/21 01:06:24;;;;;;;21.02;8.88;;;;;;;;;;4968846;28;20132;-66
2022/04/21 01:08:50;;;;;;;16.10;8.10;;;;;;;;;;4969408;28;20022;-66
2022/04/21 01:11:16;;;;;;;17.15;8.75;;;;;;;;;;4970079;28;20456;-66
2022/04/21 01:13:42;;;;;;;18.15;8.55;;;;;;;;;;4951155;28;20030;-65
2022/04/21 01:16:07;;;;;;;20.13;8.85;;;;;;;;;;4970162;28;20451;-66
2022/04/21 01:18:32;;;;;;;16.55;8.73;;;;;;;;;;4969353;28;20314;-66
2022/04/21 01:20:58;;;;;;;21.48;8.90;;;;;;;;;;4970126;28;20053;-66
2022/04/21 01:23:23;;;;;;;17.10;8.65;;;;;;;;;;4969120;28;20407;-66
2022/04/21 01:25:49;;;;;;;17.20;8.57;;;;;;;;;;4969703;28;20344;-66
2022/04/21 01:28:15;;;;;;;20.58;9.20;;;;;;;;;;4951304;28;20409;-66
2022/04/21 01:30:40;;;;;;;18.13;8.88;;;;;;;;;;4951378;28;20452;-65
2022/04/21 01:33:06;;;;;;;18.33;8.50;;;;;;;;;;4969187;28;20552;-65
2022/04/21 01:35:31;;;;;;;18.42;9.02;;;;;;;;;;4968978;28;20372;-66
2022/04/21 01:43:25;;;;;;;16.95;7.75;;;;;;;;;;4973507;28;20149;-66
2022/04/21 01:45:50;;;;;;;16.40;9.18;;;;;;;;;;4972789;28;20025;-65
2022/04/21 01:48:15;;;;;;;16.50;8.20;;;;;;;;;;4973660;28;20504;-66
2022/04/21 01:50:41;;;;;;;21.88;9.85;;;;;;;;;;4973968;28;20447;-66
2022/04/21 01:53:06;;;;;;;21.63;9.40;;;;;;;;;;4972990;28;20360;-66
2022/04/21 01:55:31;;;;;;;17.90;9.05;;;;;;;;;;4973949;28;20340;-65
2022/04/21 01:57:57;;;;;;;21.13;8.45;;;;;;;;;;4972875;28;20424;-65
2022/04/21 02:00:22;;;;;;;17.92;8.88;;;;;;;;;;4972697;28;20483;-66
2022/04/21 02:02:48;;;;;;;15.80;8.93;;;;;;;;;;4972238;28;20348;-65
2022/04/21 02:05:13;;;;;;;17.25;8.32;;;;;;;;;;4972709;28;20511;-66
2022/04/21 02:07:45;;;;;;;17.42;9.82;;;;;;;;;;4972156;28;20404;-66
2022/04/21 02:10:15;;;;;;;18.73;9.73;;;;;;;;;;4972850;28;20571;-66
2022/04/21 02:12:41;;;;;;;15.00;7.97;;;;;;;;;;4972530;28;20255;-66
2022/04/21 02:15:08;;;;;;;18.10;7.75;;;;;;;;;;4972402;28;20432;-66
2022/04/21 02:17:34;;;;;;;15.68;8.65;;;;;;;;;;4972464;28;20698;-66
2022/04/21 02:20:00;;;;;;;24.30;9.80;;;;;;;;;;4972334;28;20413;-66
2022/04/21 02:22:26;;;;;;;20.13;8.77;;;;;;;;;;4972773;28;20490;-66
2022/04/21 02:24:51;;;;;;;19.20;8.60;;;;;;;;;;4972003;28;20498;-66
2022/04/21 02:27:16;;;;;;;18.83;8.60;;;;;;;;;;4972222;28;20038;-66
2022/04/21 02:29:42;;;;;;;15.10;8.35;;;;;;;;;;4972225;28;20503;-66
2022/04/21 02:32:07;;;;;;;16.92;7.95;;;;;;;;;;4972999;28;20306;-67
2022/04/21 02:34:32;;;;;;;18.35;9.13;;;;;;;;;;4972912;28;20494;-66
2022/04/21 02:36:58;;;;;;;15.32;8.20;;;;;;;;;;4971994;28;20388;-66
2022/04/21 02:39:24;;;;;;;16.92;8.60;;;;;;;;;;4972194;28;20100;-66
2022/04/21 02:41:50;;;;;;;18.98;9.10;;;;;;;;;;4972796;28;20425;-66
2022/04/21 02:44:15;;;;;;;17.73;9.07;;;;;;;;;;4971300;28;20383;-66
2022/04/21 02:46:40;;;;;;;17.38;8.88;;;;;;;;;;4971801;28;20431;-66
2022/04/21 02:49:06;;;;;;;16.48;8.20;;;;;;;;;;4972023;28;20033;-66
2022/04/21 02:51:31;;;;;;;16.45;7.75;;;;;;;;;;4970798;28;20320;-66
2022/04/21 02:59:26;;;;;;;20.25;8.82;;;;;;;;;;4973907;28;20466;-66
2022/04/21 03:01:52;;;;;;;14.65;8.18;;;;;;;;;;4971089;28;20432;-66
2022/04/21 03:04:17;;;;;;;17.55;8.57;;;;;;;;;;4972152;28;20334;-66
2022/04/21 03:06:42;;;;;;;15.48;8.82;;;;;;;;;;4970803;28;20420;-65
2022/04/21 03:09:07;;;;;;;17.75;8.30;;;;;;;;;;4970889;28;20408;-65
2022/04/21 03:11:33;;;;;;;14.10;7.97;;;;;;;;;;4971312;28;20144;-66
2022/04/21 03:13:58;;;;;;;16.17;7.50;;;;;;;;;;4972959;28;20429;-66
2022/04/21 03:16:23;;;;;;;17.70;8.73;;;;;;;;;;4971245;28;20391;-65
2022/04/21 03:18:49;;;;;;;15.27;7.65;;;;;;;;;;4971399;28;20404;-66
2022/04/21 03:26:42;;;;;;;15.70;8.45;;;;;;;;;;4944971;28;20104;-66
2022/04/21 03:29:08;;;;;;;19.27;8.48;;;;;;;;;;4952469;28;20030;-66
2022/04/21 03:31:33;;;;;;;16.02;8.93;;;;;;;;;;4951705;28;20436;-66
2022/04/21 03:33:59;;;;;;;18.45;9.15;;;;;;;;;;4951418;28;20505;-67
2022/04/21 03:36:25;;;;;;;16.00;8.35;;;;;;;;;;4951887;28;20507;-66
2022/04/21 03:38:50;;;;;;;14.43;8.18;;;;;;;;;;4951155;28;20061;-66
2022/04/21 03:41:16;;;;;;;12.68;7.38;;;;;;;;;;4952153;28;20488;-66
2022/04/21 03:43:41;;;;;;;16.15;8.23;;;;;;;;;;4951310;28;20464;-65
2022/04/21 03:46:07;;;;;;;15.82;8.07;;;;;;;;;;4951276;28;20412;-66
2022/04/21 03:48:33;;;;;;;16.20;7.57;;;;;;;;;;4950664;28;20412;-66
2022/04/21 03:50:59;;;;;;;17.80;8.82;;;;;;;;;;4933404;28;20413;-66
2022/04/21 03:53:26;;;;;;;16.38;8.00;;;;;;;;;;4950798;28;20333;-66
2022/04/21 03:55:51;;;;;;;18.58;7.82;;;;;;;;;;4951117;28;20030;-66
2022/04/21 03:58:16;;;;;;;17.63;7.45;;;;;;;;;;4950997;28;20052;-66
2022/04/21 04:00:42;;;;;;;15.18;7.97;;;;;;;;;;4950845;28;20108;-66
2022/04/21 04:03:07;;;;;;;14.15;8.40;;;;;;;;;;4950757;28;20428;-65
2022/04/21 04:05:33;;;;;;;15.60;7.78;;;;;;;;;;4950379;28;20457;-66
2022/04/21 04:10:52;;;;;;;15.77;8.20;;;;;;;;;;4952504;28;20495;-65
2022/04/21 04:13:18;;;;;;;15.38;8.73;;;;;;;;;;4950620;28;20338;-65
2022/04/21 04:15:48;;;;;;;17.60;9.02;;;;;;;;;;4951736;28;20042;-67
2022/04/21 04:18:13;;;;;;;16.48;8.23;;;;;;;;;;4950724;28;20404;-66
2022/04/21 04:20:38;;;;;;;15.23;7.60;;;;;;;;;;4950198;28;20352;-66
2022/04/21 04:23:04;;;;;;;19.80;9.43;;;;;;;;;;4950604;28;20437;-65
2022/04/21 04:25:29;;;;;;;16.90;8.52;;;;;;;;;;4950254;28;20455;-66
2022/04/21 04:27:55;;;;;;;15.65;8.38;;;;;;;;;;4950275;28;20326;-66
2022/04/21 04:30:20;;;;;;;17.05;8.90;;;;;;;;;;4950617;28;20361;-65
2022/04/21 04:32:45;;;;;;;16.98;8.40;;;;;;;;;;4951924;28;20045;-65
2022/04/21 04:35:11;;;;;;;18.13;8.85;;;;;;;;;;4950450;28;20026;-66
2022/04/21 04:37:36;;;;;;;18.98;9.20;;;;;;;;;;4950140;28;20022;-66
2022/04/21 04:40:01;;;;;;;19.23;8.40;;;;;;;;;;4932514;28;20437;-66
2022/04/21 04:42:28;;;;;;;19.27;8.80;;;;;;;;;;4950053;28;20034;-66
2022/04/21 04:46:34;;;;;;;15.82;8.05;;;;;;;;;;4950723;28;20480;-66
2022/04/21 04:47:40;;;;;;;19.70;9.13;;;;;;;;;;4950369;28;20333;-66
2022/04/21 04:50:06;;;;;;;14.85;8.20;;;;;;;;;;4932597;28;20326;-65
2022/04/21 04:52:32;;;;;;;14.95;8.15;;;;;;;;;;4951136;28;20299;-66
2022/04/21 04:54:58;;;;;;;18.63;8.40;;;;;;;;;;4950314;28;20396;-66
2022/04/21 04:57:23;;;;;;;19.63;9.25;;;;;;;;;;4949982;28;20502;-65
2022/04/21 04:59:48;;;;;;;19.48;10.00;;;;;;;;;;4950076;28;20369;-65
2022/04/21 05:02:14;;;;;;;16.73;8.75;;;;;;;;;;4950067;28;20129;-66
2022/04/21 05:04:39;;;;;;;19.52;9.35;;;;;;;;;;4949969;28;20408;-66
2022/04/21 05:07:05;;;;;;;14.27;8.30;;;;;;;;;;4949482;28;20357;-66
2022/04/21 05:09:30;;;;;;;15.00;7.95;;;;;;;;;;4949752;28;20373;-66
2022/04/21 05:11:57;;;;;;;17.85;9.73;;;;;;;;;;4950724;28;20567;-66
2022/04/21 05:14:23;;;;;;;15.95;9.00;;;;;;;;;;4948894;28;20493;-67
2022/04/21 05:16:49;;;;;;;17.70;9.45;;;;;;;;;;4949978;28;20410;-66
2022/04/21 05:19:16;;;;;;;17.20;9.48;;;;;;;;;;4951428;28;20424;-66
2022/04/21 05:21:42;;;;;;;21.33;9.50;;;;;;;;;;4950857;28;20449;-66
2022/04/21 05:24:09;;;;;;;18.50;8.50;;;;;;;;;;4950656;28;20458;-66
2022/04/21 05:26:35;;;;;;;15.93;8.75;;;;;;;;;;4949228;28;20508;-66
2022/04/21 05:30:55;;;;;;;19.63;8.63;;;;;;;;;;4949576;28;20341;-66
2022/04/21 05:31:49;;;;;;;17.42;8.77;;;;;;;;;;4948975;28;20469;-66
2022/04/21 05:34:14;;;;;;;17.02;9.73;;;;;;;;;;4950237;28;20069;-65
2022/04/21 05:36:40;;;;;;;15.70;9.02;;;;;;;;;;4950755;28;20038;-66
2022/04/21 05:39:06;;;;;;;17.25;9.15;;;;;;;;;;4950955;28;20345;-67
2022/04/21 05:41:31;;;;;;;17.80;9.68;;;;;;;;;;4949354;28;20326;-66
2022/04/21 05:43:57;;;;;;;21.35;10.05;;;;;;;;;;4949310;28;20449;-65
2022/04/21 05:46:22;;;;;;;19.25;9.57;;;;;;;;;;4932085;28;20537;-66
2022/04/21 05:48:48;;;;;;;18.63;9.38;;;;;;;;;;4949172;28;20451;-66
2022/04/21 05:51:13;;;;;;;16.55;9.68;;;;;;;;;;4949653;28;20029;-66
2022/04/21 05:53:46;;;;;;;16.88;9.00;;;;;;;;;;4931675;28;20442;-66
2022/04/21 05:56:12;;;;;;;18.45;9.18;;;;;;;;;;4949237;28;20331;-66
2022/04/21 05:58:37;;;;;;;17.88;10.48;;;;;;;;;;4950060;28;20361;-66
2022/04/21 06:01:08;;;;;;;19.58;9.77;;;;;;;;;;4949138;28;20034;-65
2022/04/21 06:03:35;;;;;;;22.17;10.15;;;;;;;;;;4950073;28;20508;-66
2022/04/21 06:06:00;;;;;;;17.35;8.88;;;;;;;;;;4948637;28;20449;-66
2022/04/21 06:08:26;;;;;;;18.13;9.38;;;;;;;;;;4949543;28;20341;-67
2022/04/21 06:10:51;;;;;;;18.23;8.52;;;;;;;;;;4931586;28;20030;-66
2022/04/21 06:13:16;;;;;;;15.55;9.60;;;;;;;;;;4949219;28;20100;-66
2022/04/21 06:15:42;;;;;;;20.77;9.82;;;;;;;;;;4949059;28;20469;-67
2022/04/21 06:18:08;;;;;;;17.83;9.23;;;;;;;;;;4949517;28;20053;-66
2022/04/21 06:20:35;;;;;;;23.95;9.13;;;;;;;;;;4949313;28;20469;-66
2022/04/21 06:23:00;;;;;;;18.55;9.65;;;;;;;;;;4949717;28;20577;-67
2022/04/21 06:25:26;;;;;;;16.65;9.57;;;;;;;;;;4950122;28;20465;-65
2022/04/21 06:27:52;;;;;;;20.23;9.30;;;;;;;;;;4952342;28;20338;-66
2022/04/21 06:30:18;;;;;;;18.50;9.23;;;;;;;;;;4952649;28;20453;-66
2022/04/21 06:32:43;;;;;;;19.20;9.13;;;;;;;;;;4952446;28;20345;-67
2022/04/21 06:35:10;;;;;;;18.08;9.05;;;;;;;;;;4952360;28;20030;-66
2022/04/21 06:37:35;;;;;;;18.00;9.88;;;;;;;;;;4953432;28;20460;-66
2022/04/21 06:40:02;;;;;;;20.40;9.23;;;;;;;;;;4953685;28;20417;-66
2022/04/21 06:42:27;;;;;;;16.85;9.30;;;;;;;;;;4952349;28;20445;-66
2022/04/21 06:50:21;;;;;;;18.85;9.77;;;;;;;;;;4953066;28;20056;-66
2022/04/21 06:52:46;;;;;;;16.75;9.25;;;;;;;;;;4952454;28;20034;-66
2022/04/21 06:55:11;;;;;;;15.10;9.00;;;;;;;;;;4952158;28;20440;-66
2022/04/21 06:57:37;;;;;;;18.17;9.85;;;;;;;;;;4953458;28;20033;-66
2022/04/21 07:00:03;;;;;;;14.43;8.40;;;;;;;;;;4951890;28;20437;-66
2022/04/21 07:02:31;;;;;;;17.75;9.00;;;;;;;;;;4953698;28;20294;-66
2022/04/21 07:05:07;;;;;;;16.35;9.43;;;;;;;;;;4952044;28;20030;-66
2022/04/21 07:07:32;;;;;;;20.48;8.82;;;;;;;;;;4952516;28;20147;-65
2022/04/21 07:09:58;;;;;;;13.90;8.65;;;;;;;;;;4952966;28;20034;-65
2022/04/21 07:12:30;;;;;;;16.50;8.75;;;;;;;;;;4951438;28;20411;-66
2022/04/21 07:15:00;;;;;;;18.75;8.45;;;;;;;;;;4951981;28;20341;-66
2022/04/21 07:17:25;;;;;;;17.73;9.55;;;;;;;;;;4951511;28;20321;-66
2022/04/21 07:19:51;;;;;;;14.32;7.85;;;;;;;;;;4951716;28;20315;-66
2022/04/21 07:22:20;;;;;;;13.30;8.07;;;;;;;;;;4951294;28;20381;-66
2022/04/21 07:24:46;;;;;;;14.57;8.40;;;;;;;;;;4952055;28;20054;-66
2022/04/21 07:27:11;;;;;;;14.40;8.05;;;;;;;;;;4951242;28;20088;-66
2022/04/21 07:29:36;;;;;;;17.90;8.27;;;;;;;;;;4953262;28;20402;-66
2022/04/21 07:32:03;;;;;;;15.88;7.68;;;;;;;;;;4951683;28;20381;-66
2022/04/21 07:34:28;;;;;;;13.70;7.82;;;;;;;;;;4951341;28;20447;-66
2022/04/21 07:36:53;;;;;;;14.88;7.65;;;;;;;;;;4951009;28;20095;-66
2022/04/21 07:39:18;;;;;;;16.92;8.10;;;;;;;;;;4951401;28;20029;-66
2022/04/21 07:41:44;;;;;;;12.68;7.13;;;;;;;;;;4951370;28;20053;-66
2022/04/21 07:44:09;;;;;;;16.00;8.35;;;;;;;;;;4951000;28;20392;-66
2022/04/21 07:46:36;;;;;;;15.25;7.43;;;;;;;;;;4951218;28;20342;-67
2022/04/21 07:53:12;;;;;;;14.20;7.47;;;;;;;;;;4928647;28;20369;-66
2022/04/21 07:54:38;;;;;;;12.13;6.72;;;;;;;;;;4952609;28;20038;-66
2022/04/21 07:57:03;;;;;;;14.23;7.32;;;;;;;;;;4950755;28;20076;-66
2022/04/21 07:59:29;;;;;;;14.73;6.88;;;;;;;;;;4951723;28;20360;-67
2022/04/21 08:01:56;;;;;;;15.43;7.35;;;;;;;;;;4950932;28;20364;-66
2022/04/21 08:04:22;;;;;;;14.68;7.38;;;;;;;;;;4951174;28;20398;-66
2022/04/21 08:06:47;;;;;;;12.63;7.28;;;;;;;;;;4950330;28;20369;-66
2022/04/21 08:09:12;;;;;;;19.70;8.18;;;;;;;;;;4949924;28;20650;-66
2022/04/21 08:11:38;;;;;;;13.63;7.05;;;;;;;;;;4950434;28;20442;-66
2022/04/21 08:14:03;;;;;;;11.13;6.72;;;;;;;;;;4950848;28;20064;-66
2022/04/21 08:16:29;;;;;;;11.48;6.63;;;;;;;;;;4950628;28;20453;-66
2022/04/21 08:18:54;;;;;;;14.07;6.47;;;;;;;;;;4950726;28;20109;-66
2022/04/21 08:21:20;;;;;;;12.23;6.53;;;;;;;;;;4950580;28;20416;-66
2022/04/21 08:23:46;;;;;;;16.35;7.68;;;;;;;;;;4950736;28;20362;-66
2022/04/21 08:34:24;;;;;;;15.50;6.53;;;;;;;;;;4951291;28;20389;-66
2022/04/21 08:36:49;;;;;;;15.35;6.93;;;;;;;;;;4950260;28;20369;-66
2022/04/21 08:39:14;;;;;;;10.23;6.10;;;;;;;;;;4951145;28;20333;-66
2022/04/21 08:41:47;;;;;;;12.13;6.85;;;;;;;;;;4950209;28;20054;-65
2022/04/21 08:44:17;;;;;;;11.35;6.57;;;;;;;;;;4950369;28;20448;-65
2022/04/21 08:46:43;;;;;;;12.65;6.25;;;;;;;;;;4950007;28;20365;-66
2022/04/21 08:49:10;;;;;;;11.88;6.55;;;;;;;;;;4949268;28;20080;-66
2022/04/21 08:51:35;;;;;;;17.45;6.43;;;;;;;;;;4932477;28;20432;-66
2022/04/21 08:54:02;;;;;;;10.98;6.30;;;;;;;;;;4950125;28;20123;-66
2022/04/21 08:56:29;;;;;;;11.55;6.90;;;;;;;;;;4949870;28;20060;-66
2022/04/21 08:58:54;;;;;;;11.25;6.03;;;;;;;;;;4932448;28;20426;-66
2022/04/21 09:01:19;;;;;;;12.77;6.10;;;;;;;;;;4950145;28;20033;-66
2022/04/21 09:03:46;;;;;;;9.30;5.75;;;;;;;;;;4949728;28;20026;-66
2022/04/21 09:06:12;;;;;;;12.35;6.53;;;;;;;;;;4949469;28;20104;-66
2022/04/21 09:08:38;;;;;;;11.68;6.30;;;;;;;;;;4932720;28;20189;-66
2022/04/21 09:11:07;;;;;;;10.57;5.75;;;;;;;;;;4949960;28;20509;-67
2022/04/21 09:13:36;;;;;;;10.50;5.65;;;;;;;;;;4949618;28;20384;-66
2022/04/21 09:16:03;;;;;;;;;;;;;;;;;;4932066;28;20080;-66
2022/04/21 09:18:38;;;;;;;10.02;5.70;;;;;;;;;;4950754;28;20780;-66
2022/04/21 09:21:14;;;;;;;11.55;5.80;;;;;;;;;;4951159;28;20526;-65
2022/04/21 09:23:40;;;;;;;12.55;6.03;;;;;;;;;;4949620;28;20026;-66
2022/04/21 09:26:16;;;;;;;10.77;6.00;;;;;;;;;;4949964;28;20456;-65
2022/04/21 09:28:42;;;;;;;12.70;6.15;;;;;;;;;;4950063;28;20513;-66
2022/04/21 09:31:09;;;;;;;10.23;5.85;;;;;;;;;;4949633;28;20452;-65
2022/04/21 09:33:36;;;;;;;13.95;6.20;;;;;;;;;;4949421;28;20396;-66
2022/04/21 09:36:04;;;;;;;10.88;5.97;;;;;;;;;;4949738;28;20429;-66
2022/04/21 09:38:29;;;;;;;11.38;5.95;;;;;;;;;;4949787;28;20365;-66
2022/04/21 09:40:55;;;;;;;10.93;6.20;;;;;;;;;;4949611;28;20365;-66
2022/04/21 09:43:28;;;;;;;11.38;5.90;;;;;;;;;;4949800;28;20038;-66
2022/04/21 09:46:09;;;;;;;10.52;5.82;;;;;;;;;;4948907;28;20327;-66
2022/04/21 09:48:34;;;;;;;15.50;6.35;;;;;;;;;;4949555;28;20340;-66
2022/04/21 09:51:13;;;;;;;10.40;5.45;;;;;;;;;;4931536;28;20026;-65
2022/04/21 09:53:51;;;;;;;;;;;;;;;;;;4950055;28;20088;-66
2022/04/21 09:56:17;;;;;;;8.30;5.28;;;;;;;;;;4951047;28;19913;-66
2022/04/21 09:58:45;;;;;;;10.30;5.60;;;;;;;;;;4949343;28;20425;-66
2022/04/21 10:01:10;;;;;;;11.20;5.50;;;;;;;;;;4953939;28;20346;-66
2022/04/21 10:03:41;;;;;;;10.20;5.28;;;;;;;;;;4935419;28;20323;-66
2022/04/21 10:06:06;;;;;;;9.95;6.13;;;;;;;;;;4952963;28;20068;-66
2022/04/21 10:08:34;;;;;;;11.32;5.85;;;;;;;;;;4953496;28;20472;-65
2022/04/21 10:10:59;;;;;;;10.07;5.28;;;;;;;;;;4953657;28;20381;-66
2022/04/21 10:13:25;;;;;;;11.57;5.50;;;;;;;;;;4953031;28;20310;-66
2022/04/21 10:15:51;;;;;;;11.30;5.88;;;;;;;;;;4952963;28;20034;-65
2022/04/21 10:18:17;;;;;;;11.18;6.05;;;;;;;;;;4952557;28;20427;-65
2022/04/21 10:20:44;;;;;;;12.63;6.03;;;;;;;;;;4952812;28;20076;-67
2022/04/21 10:23:13;;;;;;;10.75;5.93;;;;;;;;;;4935685;28;20093;-66
2022/04/21 10:25:40;;;;;;;10.68;5.25;;;;;;;;;;4952704;28;20048;-66
2022/04/21 10:28:37;;;;;;;16.50;5.90;;;;;;;;;;4952642;28;20388;-66
2022/04/21 10:31:28;;;;;;;10.02;6.22;;;;;;;;;;4938914;28;20698;-66
2022/04/21 10:34:01;;;;;;;13.75;5.75;;;;;;;;;;4953130;28;20345;-65
2022/04/21 10:36:47;;;;;;;10.10;5.50;;;;;;;;;;4953250;28;20532;-66
2022/04/21 10:39:12;;;;;;;11.65;5.63;;;;;;;;;;4952546;28;20026;-66
2022/04/21 10:41:38;;;;;;;8.48;4.75;;;;;;;;;;4954328;28;20394;-66
2022/04/21 10:44:12;;;;;;;10.52;5.53;;;;;;;;;;4953623;28;20049;-66
2022/04/21 10:46:37;;;;;;;10.25;5.38;;;;;;;;;;4953220;28;20384;-66
2022/04/21 10:49:02;;;;;;;10.07;5.22;;;;;;;;;;4953768;28;20318;-66
2022/04/21 10:57:31;;;;;;;10.20;5.38;;;;;;;;;;4953584;28;20397;-66
2022/04/21 11:00:05;;;;;;;11.18;5.45;;;;;;;;;;4934910;28;20080;-66
2022/04/21 11:02:44;;;;;;;12.07;5.53;;;;;;;;;;4951836;28;20052;-65
2022/04/21 11:05:21;;;;;;;10.90;5.30;;;;;;;;;;4934249;28;20440;-66
2022/04/21 11:07:53;;;;;;;11.35;5.47;;;;;;;;;;4952843;28;20049;-66
2022/04/21 11:10:38;;;;;;;11.57;4.68;;;;;;;;;;4951584;28;20116;-66
2022/04/21 11:13:10;;;;;;;10.85;5.25;;;;;;;;;;4951714;28;20404;-65
2022/04/21 11:15:45;;;;;;;10.60;6.00;;;;;;;;;;4951612;28;20038;-65
2022/04/21 11:18:15;;;;;;;10.63;5.55;;;;;;;;;;4951719;28;20030;-66
2022/04/21 11:20:45;;;;;;;14.15;5.18;;;;;;;;;;4951474;28;20476;-66
2022/04/21 11:23:21;;;;;;;10.40;5.43;;;;;;;;;;4952317;28;20443;-65
2022/04/21 11:25:47;;;;;;;9.43;4.63;;;;;;;;;;4951701;28;20357;-65
2022/04/21 11:28:13;;;;;;;12.55;5.57;;;;;;;;;;4934108;28;20442;-65
2022/04/21 11:30:38;;;;;;;9.38;5.32;;;;;;;;;;4951746;28;20349;-66
2022/04/21 11:33:10;;;;;;;8.60;4.50;;;;;;;;;;4951194;28;20057;-66
2022/04/21 11:35:35;;;;;;;9.73;5.22;;;;;;;;;;4951302;28;20034;-66
2022/04/21 11:38:01;;;;;;;11.55;4.85;;;;;;;;;;4952782;28;20476;-66
2022/04/21 11:40:36;;;;;;;10.32;4.72;;;;;;;;;;4951657;28;20425;-66
2022/04/21 11:43:05;;;;;;;9.82;4.35;;;;;;;;;;4950948;28;20478;-66
2022/04/21 11:45:37;;;;;;;9.05;4.85;;;;;;;;;;4951193;28;20026;-66
2022/04/21 11:48:10;;;;;;;9.52;4.72;;;;;;;;;;4951532;28;20329;-66
2022/04/21 11:50:35;;;;;;;7.53;4.80;;;;;;;;;;4950882;28;20417;-65
2022/04/21 11:53:11;;;;;;;10.05;4.80;;;;;;;;;;4951754;28;20448;-65
2022/04/21 11:55:36;;;;;;;9.70;5.03;;;;;;;;;;4951167;28;20548;-65
2022/04/21 11:58:01;;;;;;;9.70;4.72;;;;;;;;;;4950999;28;20460;-65
2022/04/21 12:06:28;;;;;;;8.68;4.82;;;;;;;;;;4951324;28;20437;-66
2022/04/21 12:08:49;;;;;;;9.63;4.90;;;;;;;;;;4951362;28;20360;-66
2022/04/21 12:11:17;;;;;;;8.25;4.60;;;;;;;;;;4951098;28;20402;-65
2022/04/21 12:13:43;;;;;;;8.18;5.00;;;;;;;;;;4933027;28;20381;-65
2022/04/21 12:16:39;;;;;;;8.43;4.65;;;;;;;;;;4950753;28;20499;-66
2022/04/21 12:19:28;;;;;;;6.50;4.22;;;;;;;;;;4950652;28;20029;-66
2022/04/21 12:22:07;;;;;;;5.50;3.95;;;;;;;;;;4950718;28;20393;-65
2022/04/21 12:24:37;;;;;;;8.83;4.70;;;;;;;;;;4950015;28;20350;-65
2022/04/21 12:27:13;;;;;;;8.63;4.65;;;;;;;;;;4950803;28;20438;-66
2022/04/21 12:29:52;;;;;;;8.00;4.40;;;;;;;;;;4951202;28;20349;-65
2022/04/21 12:32:25;;;;;;;;;;;;;;;;;;4951229;28;20460;-65
2022/04/21 12:34:51;;;;;;;7.78;4.57;;;;;;;;;;4950259;28;20321;-67
2022/04/21 12:37:27;;;;;;;9.45;4.40;;;;;;;;;;4932726;28;20417;-66
2022/04/21 12:39:54;;;;;;;10.38;5.03;;;;;;;;;;4950254;28;20484;-65
2022/04/21 12:42:20;;;;;;;11.50;4.53;;;;;;;;;;4933514;28;20472;-65
2022/04/21 12:44:46;;;;;;;6.00;4.22;;;;;;;;;;4949896;28;20361;-65
2022/04/21 12:47:18;;;;;;;7.65;4.38;;;;;;;;;;4950349;28;20480;-65
2022/04/21 12:49:53;;;;;;;8.80;4.35;;;;;;;;;;4932569;28;20474;-66
2022/04/21 12:52:39;;;;;;;9.65;4.30;;;;;;;;;;4950883;28;20380;-65
2022/04/21 12:55:25;;;;;;;10.75;4.00;;;;;;;;;;4950093;28;20412;-66
2022/04/21 12:58:05;;;;;;;6.43;3.70;;;;;;;;;;4950439;28;20456;-66
2022/04/21 13:00:32;;;;;;;7.43;4.00;;;;;;;;;;4949831;28;20057;-65
2022/04/21 13:02:57;;;;;;;7.07;3.63;;;;;;;;;;4949648;28;20056;-66
2022/04/21 13:05:22;;;;;;;5.97;4.05;;;;;;;;;;4949791;28;20453;-66
2022/04/21 13:07:47;;;;;;;8.00;4.47;;;;;;;;;;4950704;28;20438;-65
2022/04/21 13:10:13;;;;;;;6.18;3.60;;;;;;;;;;4950001;28;20038;-65
2022/04/21 13:12:38;;;;;;;5.18;3.47;;;;;;;;;;4949278;28;20511;-66
2022/04/21 13:15:04;;;;;;;6.88;4.28;;;;;;;;;;4950110;28;20345;-65
2022/04/21 13:17:30;;;;;;;6.35;3.92;;;;;;;;;;4949475;28;20539;-65
2022/04/21 13:19:56;;;;;;;6.55;3.78;;;;;;;;;;4949892;28;20383;-65
2022/04/21 13:22:21;;;;;;;5.57;3.85;;;;;;;;;;4951011;28;20366;-66
2022/04/21 13:24:47;;;;;;;8.27;4.47;;;;;;;;;;4949905;28;20432;-65
2022/04/21 13:27:15;;;;;;;7.75;4.22;;;;;;;;;;4949467;28;20422;-66
2022/04/21 13:29:43;;;;;;;6.30;3.55;;;;;;;;;;4949711;28;20509;-66
2022/04/21 13:34:53;;;;;;;5.45;3.75;;;;;;;;;;4952156;28;20503;-65
2022/04/21 13:37:18;;;;;;;6.78;4.13;;;;;;;;;;4953636;28;20460;-66
2022/04/21 13:39:43;;;;;;;8.18;4.35;;;;;;;;;;4953464;28;20567;-65
2022/04/21 13:42:09;;;;;;;7.15;4.18;;;;;;;;;;4953402;28;20345;-66
2022/04/21 13:44:34;;;;;;;6.32;3.40;;;;;;;;;;4953433;28;20433;-66
2022/04/21 13:47:00;;;;;;;5.90;3.80;;;;;;;;;;4953415;28;20498;-66
2022/04/21 13:49:25;;;;;;;5.43;3.58;;;;;;;;;;4953768;28;20349;-65
2022/04/21 13:51:52;;;;;;;5.63;3.75;;;;;;;;;;4953665;28;20553;-66
2022/04/21 13:54:18;;;;;;;5.68;3.40;;;;;;;;;;4952187;28;20426;-66
2022/04/21 13:56:44;;;;;;;7.70;3.60;;;;;;;;;;4953253;28;20336;-65
2022/04/21 13:59:10;;;;;;;7.60;3.70;;;;;;;;;;4952944;28;20331;-66
2022/04/21 14:01:36;;;;;;;5.25;3.33;;;;;;;;;;4954398;28;20444;-65
2022/04/21 14:04:01;;;;;;;7.07;3.75;;;;;;;;;;4954601;28;20479;-66
2022/04/21 14:06:27;;;;;;;6.05;3.75;;;;;;;;;;4952561;28;20461;-67
2022/04/21 14:08:53;;;;;;;6.50;3.67;;;;;;;;;;4954644;28;20317;-65
2022/04/21 14:11:18;;;;;;;5.65;3.22;;;;;;;;;;4952982;28;20026;-66
2022/04/21 14:13:44;;;;;;;5.70;3.50;;;;;;;;;;4952737;28;20052;-66
2022/04/21 14:16:10;;;;;;;5.60;3.88;;;;;;;;;;4952873;28;20334;-65
2022/04/21 14:18:36;;;;;;;10.35;3.92;;;;;;;;;;4953297;28;20053;-65
2022/04/21 14:21:02;;;;;;;6.25;3.33;;;;;;;;;;4952604;28;20430;-66
2022/04/21 14:23:33;;;;;;;8.80;3.88;;;;;;;;;;4953979;28;20432;-67
2022/04/21 14:25:59;;;;;;;7.05;3.90;;;;;;;;;;4952806;28;20441;-65
2022/04/21 14:28:25;;;;;;;8.85;3.30;;;;;;;;;;4952859;28;20544;-65
2022/04/21 14:30:50;;;;;;;8.38;3.60;;;;;;;;;;4952330;28;20452;-65
2022/04/21 14:33:16;;;;;;;7.03;3.35;;;;;;;;;;4952999;28;20481;-65
2022/04/21 14:35:41;;;;;;;6.40;4.15;;;;;;;;;;4952554;28;20139;-66
2022/04/21 14:46:18;;;;;;;7.03;3.97;;;;;;;;;;4953174;28;20500;-66
2022/04/21 14:48:44;;;;;;;5.60;3.00;;;;;;;;;;4952119;28;20508;-65
2022/04/21 14:51:09;;;;;;;6.47;3.85;;;;;;;;;;4952429;28;20440;-65
2022/04/21 14:53:35;;;;;;;6.95;4.18;;;;;;;;;;4953046;28;20404;-66
2022/04/21 14:56:00;;;;;;;6.95;3.40;;;;;;;;;;4952356;28;20428;-65
2022/04/21 14:58:26;;;;;;;5.22;3.05;;;;;;;;;;4952338;28;20489;-66
2022/04/21 15:00:51;;;;;;;6.60;3.80;;;;;;;;;;4952966;28;20112;-66
2022/04/21 15:03:19;;;;;;;6.05;3.53;;;;;;;;;;4934605;28;20029;-66
2022/04/21 15:05:45;;;;;;;5.73;3.23;;;;;;;;;;4951655;28;20034;-65
2022/04/21 15:08:10;;;;;;;7.15;3.60;;;;;;;;;;4953146;28;20766;-65
2022/04/21 15:10:40;;;;;;;10.30;4.00;;;;;;;;;;4951971;28;20326;-65
2022/04/21 15:13:08;;;;;;;6.28;3.33;;;;;;;;;;4952202;28;20425;-65
2022/04/21 15:15:35;;;;;;;5.88;3.63;;;;;;;;;;4951925;28;20356;-65
2022/04/21 15:18:00;;;;;;;4.93;3.25;;;;;;;;;;4951964;28;20349;-66
2022/04/21 15:20:27;;;;;;;6.07;3.33;;;;;;;;;;4933997;28;20361;-65
2022/04/21 15:22:52;;;;;;;5.85;3.28;;;;;;;;;;4951897;28;20307;-65
2022/04/21 15:25:18;;;;;;;7.00;3.17;;;;;;;;;;4951618;28;20353;-65
2022/04/21 15:27:43;;;;;;;6.28;3.13;;;;;;;;;;4933771;28;20402;-66
2022/04/21 15:30:09;;;;;;;6.78;3.45;;;;;;;;;;4953343;28;20095;-65
2022/04/21 15:32:34;;;;;;;9.98;3.53;;;;;;;;;;4951514;28;20381;-65
2022/04/21 15:34:59;;;;;;;5.13;3.08;;;;;;;;;;4952556;28;20445;-65
2022/04/21 15:37:25;;;;;;;5.90;3.42;;;;;;;;;;4951619;28;20337;-65